createdAt,value
2018-09-26T00:02:17.035Z,99.90
2018-09-26T00:04:48.039Z,99.90
2018-09-26T00:07:16.351Z,99.90
2018-09-26T00:09:44.642Z,99.90
2018-09-26T00:12:12.942Z,99.90
2018-09-26T00:14:41.302Z,99.90
2018-09-26T00:17:09.675Z,99.90
2018-09-26T00:19:37.969Z,99.90
2018-09-26T00:22:06.282Z,99.90
2018-09-26T00:24:34.601Z,99.90
2018-09-26T00:27:03.029Z,99.90
2018-09-26T00:29:31.378Z,99.90
2018-09-26T00:31:59.727Z,99.90
2018-09-26T00:34:28.072Z,99.90
2018-09-26T00:36:56.349Z,99.90
2018-09-26T00:39:24.685Z,99.90
2018-09-26T00:41:53.075Z,99.90
2018-09-26T00:44:21.397Z,99.90
2018-09-26T00:46:49.762Z,99.90
2018-09-26T00:49:18.114Z,99.90
2018-09-26T00:51:46.466Z,99.90
2018-09-26T00:54:14.826Z,99.90
2018-09-26T00:56:43.151Z,99.90
2018-09-26T00:59:11.519Z,99.90
2018-09-26T01:01:39.884Z,99.90
2018-09-26T01:04:08.208Z,99.90
2018-09-26T01:06:36.515Z,99.90
2018-09-26T01:09:07.250Z,99.90
2018-09-26T01:11:35.885Z,99.90
2018-09-26T01:14:04.422Z,99.90
2018-09-26T01:16:32.836Z,99.90
2018-09-26T01:19:01.301Z,99.90
2018-09-26T01:21:29.645Z,99.90
2018-09-26T01:23:57.996Z,99.90
2018-09-26T01:26:26.414Z,99.90
2018-09-26T01:28:54.764Z,99.90
2018-09-26T01:31:23.183Z,99.90
2018-09-26T01:33:51.492Z,99.90
2018-09-26T01:36:19.947Z,99.90
2018-09-26T01:38:48.326Z,99.90
2018-09-26T01:41:16.741Z,99.90
2018-09-26T01:43:45.345Z,99.90
2018-09-26T01:46:13.692Z,99.90
2018-09-26T01:48:42.066Z,99.90
2018-09-26T01:51:10.399Z,99.90
2018-09-26T01:53:38.778Z,99.90
2018-09-26T01:56:07.122Z,99.90
2018-09-26T01:58:35.489Z,99.90
2018-09-26T02:01:03.805Z,99.90
2018-09-26T02:03:32.219Z,99.90
2018-09-26T02:06:00.629Z,99.90
2018-09-26T02:08:28.979Z,99.90
2018-09-26T02:10:57.305Z,99.90
2018-09-26T02:13:25.672Z,99.90
2018-09-26T02:15:54.033Z,99.90
2018-09-26T02:18:22.445Z,99.90
2018-09-26T02:20:50.767Z,99.90
2018-09-26T02:23:19.361Z,99.90
2018-09-26T02:25:47.734Z,99.90
2018-09-26T02:28:16.108Z,99.90
2018-09-26T02:30:44.526Z,99.90
2018-09-26T02:33:12.915Z,99.90
2018-09-26T02:35:41.228Z,99.90
2018-09-26T02:38:09.615Z,99.90
2018-09-26T02:40:38.055Z,99.90
2018-09-26T02:43:06.604Z,99.90
2018-09-26T02:45:35.010Z,99.90
2018-09-26T02:48:03.338Z,99.90
2018-09-26T02:50:31.728Z,99.90
2018-09-26T02:53:00.072Z,99.90
2018-09-26T02:55:28.614Z,99.90
2018-09-26T02:57:56.992Z,99.90
2018-09-26T03:00:25.321Z,99.90
2018-09-26T03:02:53.730Z,99.90
2018-09-26T03:05:22.050Z,99.90
2018-09-26T03:07:50.396Z,99.90
2018-09-26T03:10:18.731Z,99.90
2018-09-26T03:12:47.034Z,99.90
2018-09-26T03:15:15.533Z,99.90
2018-09-26T03:17:43.867Z,99.90
2018-09-26T03:20:12.164Z,99.90
2018-09-26T03:22:40.475Z,99.90
2018-09-26T03:25:08.818Z,99.90
2018-09-26T03:27:37.115Z,99.90
2018-09-26T03:30:05.617Z,99.90
2018-09-26T03:32:33.966Z,99.90
2018-09-26T03:35:02.479Z,99.90
2018-09-26T03:37:31.089Z,99.90
2018-09-26T03:39:59.425Z,99.90
2018-09-26T03:42:27.855Z,99.90
2018-09-26T03:44:56.180Z,99.90
2018-09-26T03:47:24.498Z,99.90
2018-09-26T03:49:52.802Z,99.90
2018-09-26T03:52:21.149Z,99.90
2018-09-26T03:54:49.481Z,99.90
2018-09-26T03:57:17.937Z,99.90
2018-09-26T03:59:46.349Z,99.90
2018-09-26T04:02:14.659Z,99.90
2018-09-26T04:04:43.077Z,99.90
2018-09-26T04:07:11.390Z,99.90
2018-09-26T04:09:39.902Z,99.90
2018-09-26T04:12:08.339Z,99.90
2018-09-26T04:14:36.689Z,99.90
2018-09-26T04:17:05.022Z,99.90
2018-09-26T04:19:33.421Z,99.90
2018-09-26T04:22:01.919Z,99.90
2018-09-26T04:24:30.318Z,99.90
2018-09-26T04:26:59.074Z,99.90
2018-09-26T04:29:26.985Z,99.90
2018-09-26T04:31:55.332Z,99.90
2018-09-26T04:34:23.680Z,99.90
2018-09-26T04:36:52.101Z,99.90
2018-09-26T04:39:21.330Z,99.90
2018-09-26T04:41:49.651Z,99.90
2018-09-26T04:44:18.009Z,99.90
2018-09-26T04:46:46.354Z,99.90
2018-09-26T04:49:14.705Z,99.90
2018-09-26T04:51:43.050Z,99.90
2018-09-26T04:54:11.417Z,99.90
2018-09-26T04:56:39.874Z,99.90
2018-09-26T04:59:08.249Z,99.90
2018-09-26T05:01:36.550Z,99.90
2018-09-26T05:04:05.024Z,99.90
2018-09-26T05:06:33.409Z,99.90
2018-09-26T05:09:01.786Z,99.90
2018-09-26T05:11:30.181Z,99.90
2018-09-26T05:13:58.544Z,99.90
2018-09-26T05:16:26.921Z,99.90
2018-09-26T05:18:55.263Z,99.90
2018-09-26T05:21:23.649Z,99.90
2018-09-26T05:23:52.004Z,99.90
2018-09-26T05:26:20.399Z,99.90
2018-09-26T05:28:48.777Z,99.90
2018-09-26T05:31:17.210Z,99.90
2018-09-26T05:33:45.561Z,99.90
2018-09-26T05:36:13.919Z,99.90
2018-09-26T05:38:42.244Z,99.90
2018-09-26T05:41:10.573Z,99.90
2018-09-26T05:43:39.011Z,99.90
2018-09-26T05:46:07.390Z,99.90
2018-09-26T05:48:35.994Z,99.90
2018-09-26T05:51:04.489Z,99.90
2018-09-26T05:53:33.058Z,99.90
2018-09-26T05:56:01.420Z,99.90
2018-09-26T05:58:29.791Z,99.90
2018-09-26T06:00:58.187Z,99.90
2018-09-26T06:03:26.634Z,99.90
2018-09-26T06:05:54.988Z,99.90
2018-09-26T06:08:23.394Z,99.90
2018-09-26T06:10:51.808Z,99.90
2018-09-26T06:13:20.249Z,99.90
2018-09-26T06:15:48.636Z,99.90
2018-09-26T06:18:17.076Z,99.90
2018-09-26T06:20:45.479Z,99.90
2018-09-26T06:23:13.775Z,99.90
2018-09-26T06:25:42.107Z,99.90
2018-09-26T06:28:10.449Z,99.90
2018-09-26T06:30:38.883Z,99.90
2018-09-26T06:33:07.319Z,99.90
2018-09-26T06:35:35.695Z,99.90
2018-09-26T06:38:04.080Z,99.90
2018-09-26T06:40:32.578Z,99.90
2018-09-26T06:43:00.868Z,99.90
2018-09-26T06:45:29.353Z,99.90
2018-09-26T06:47:57.682Z,99.90
2018-09-26T06:50:26.046Z,99.90
2018-09-26T06:52:54.464Z,99.90
2018-09-26T06:55:22.838Z,99.90
2018-09-26T06:57:51.403Z,99.90
2018-09-26T07:00:19.812Z,99.90
2018-09-26T07:02:48.095Z,99.90
2018-09-26T07:05:16.447Z,99.90
2018-09-26T07:07:44.881Z,99.90
2018-09-26T07:10:13.290Z,99.90
2018-09-26T07:12:41.619Z,99.90
2018-09-26T07:15:09.960Z,99.90
2018-09-26T07:17:38.339Z,99.90
2018-09-26T07:20:06.841Z,99.90
2018-09-26T07:22:35.375Z,99.90
2018-09-26T07:25:03.701Z,99.90
2018-09-26T07:27:32.065Z,99.90
2018-09-26T07:30:00.434Z,99.90
2018-09-26T07:32:28.823Z,99.90
2018-09-26T07:34:57.158Z,99.90
2018-09-26T07:37:25.529Z,99.90
2018-09-26T07:39:53.895Z,99.90
2018-09-26T07:42:22.343Z,99.90
2018-09-26T07:44:50.736Z,99.90
2018-09-26T07:47:19.099Z,99.90
2018-09-26T07:49:47.480Z,99.90
2018-09-26T07:52:15.856Z,99.90
2018-09-26T07:54:44.184Z,99.90
2018-09-26T07:57:12.462Z,99.90
2018-09-26T07:59:40.841Z,99.90
2018-09-26T08:02:09.304Z,99.90
2018-09-26T08:04:37.643Z,99.90
2018-09-26T08:07:06.052Z,99.90
2018-09-26T08:09:34.397Z,99.90
2018-09-26T08:12:02.861Z,99.90
2018-09-26T08:14:31.232Z,99.90
2018-09-26T08:16:59.631Z,99.90
2018-09-26T08:19:27.999Z,99.90
2018-09-26T08:21:56.513Z,99.90
2018-09-26T08:24:25.223Z,99.90
2018-09-26T08:26:53.838Z,99.90
2018-09-26T08:29:22.257Z,99.90
2018-09-26T08:31:50.730Z,99.90
2018-09-26T08:34:19.200Z,99.90
2018-09-26T08:36:47.614Z,99.90
2018-09-26T08:39:15.965Z,99.90
2018-09-26T08:41:44.354Z,99.90
2018-09-26T08:44:12.760Z,98.60
2018-09-26T08:46:41.284Z,98.80
2018-09-26T08:49:09.823Z,98.30
2018-09-26T08:51:38.629Z,97.90
2018-09-26T08:54:07.151Z,97.20
2018-09-26T08:56:35.468Z,94.70
2018-09-26T08:59:03.922Z,96.10
2018-09-26T09:01:37.684Z,95.80
2018-09-26T09:04:06.029Z,94.90
2018-09-26T09:06:34.412Z,93.40
2018-09-26T09:09:02.881Z,92.90
2018-09-26T09:11:31.295Z,93.70
2018-09-26T09:13:59.593Z,92.50
2018-09-26T09:16:28.021Z,91.90
2018-09-26T09:18:56.448Z,91.70
2018-09-26T09:21:25.162Z,91.50
2018-09-26T09:23:53.657Z,91.90
2018-09-26T09:26:22.077Z,92.20
2018-09-26T09:28:50.397Z,91.80
2018-09-26T09:31:18.761Z,91.00
2018-09-26T09:33:47.160Z,90.70
2018-09-26T09:36:15.575Z,89.40
2018-09-26T09:38:43.958Z,88.00
2018-09-26T09:41:12.357Z,88.40
2018-09-26T09:43:40.695Z,88.40
2018-09-26T09:46:09.030Z,86.30
2018-09-26T09:48:37.353Z,86.20
2018-09-26T09:51:05.743Z,84.60
2018-09-26T09:53:34.192Z,84.20
2018-09-26T09:56:02.553Z,85.90
2018-09-26T09:58:30.906Z,86.40
2018-09-26T10:01:04.452Z,87.40
2018-09-26T10:03:32.800Z,87.40
2018-09-26T10:06:01.100Z,85.70
2018-09-26T10:08:29.415Z,86.60
2018-09-26T10:10:57.789Z,86.50
2018-09-26T10:13:26.118Z,85.10
2018-09-26T10:15:54.481Z,85.60
2018-09-26T10:18:22.822Z,85.80
2018-09-26T10:20:51.168Z,86.60
2018-09-26T10:23:19.573Z,86.50
2018-09-26T10:25:47.921Z,86.90
2018-09-26T10:28:16.311Z,87.90
2018-09-26T10:30:44.764Z,86.30
2018-09-26T10:33:13.150Z,86.00
2018-09-26T10:35:41.503Z,84.60
2018-09-26T10:38:09.904Z,84.40
2018-09-26T10:40:38.264Z,84.40
2018-09-26T10:43:06.606Z,82.60
2018-09-26T10:45:34.948Z,82.80
2018-09-26T10:48:03.269Z,83.50
2018-09-26T10:50:31.611Z,81.20
2018-09-26T10:53:00.063Z,82.60
2018-09-26T10:55:28.434Z,83.30
2018-09-26T10:57:56.753Z,84.80
2018-09-26T11:00:25.092Z,82.90
2018-09-26T11:02:53.449Z,82.90
2018-09-26T11:05:21.828Z,83.30
2018-09-26T11:07:50.132Z,81.00
2018-09-26T11:10:18.550Z,81.30
2018-09-26T11:12:46.882Z,80.30
2018-09-26T11:15:15.210Z,77.30
2018-09-26T11:17:43.631Z,78.70
2018-09-26T11:20:12.055Z,79.20
2018-09-26T11:22:40.414Z,78.40
2018-09-26T11:25:08.780Z,76.70
2018-09-26T11:27:37.129Z,76.50
2018-09-26T11:30:05.501Z,78.40
2018-09-26T11:32:33.885Z,84.30
2018-09-26T11:35:02.314Z,80.00
2018-09-26T11:37:30.661Z,78.70
2018-09-26T11:39:59.048Z,74.50
2018-09-26T11:42:27.418Z,76.80
2018-09-26T11:44:55.775Z,77.70
2018-09-26T11:47:24.137Z,75.70
2018-09-26T11:49:52.491Z,76.20
2018-09-26T11:52:20.883Z,74.10
2018-09-26T11:54:49.269Z,75.10
2018-09-26T11:57:17.614Z,77.30
2018-09-26T11:59:45.980Z,74.90
2018-09-26T12:02:14.353Z,75.40
2018-09-26T12:04:42.635Z,73.80
2018-09-26T12:07:11.001Z,75.90
2018-09-26T12:09:39.352Z,72.60
2018-09-26T12:12:07.729Z,73.00
2018-09-26T12:14:36.067Z,72.70
2018-09-26T12:17:04.405Z,73.20
2018-09-26T12:19:32.769Z,72.30
2018-09-26T12:22:01.103Z,71.60
2018-09-26T12:24:29.456Z,69.70
2018-09-26T12:26:57.864Z,71.30
2018-09-26T12:29:26.206Z,69.90
2018-09-26T12:31:54.588Z,68.90
2018-09-26T12:34:23.018Z,69.00
2018-09-26T12:36:51.349Z,70.60
2018-09-26T12:39:19.716Z,68.20
2018-09-26T12:41:48.051Z,64.50
2018-09-26T12:44:16.751Z,66.10
2018-09-26T12:46:45.281Z,68.00
2018-09-26T12:49:13.704Z,66.40
2018-09-26T12:51:42.548Z,67.40
2018-09-26T12:54:10.924Z,66.90
2018-09-26T12:56:39.391Z,66.50
2018-09-26T12:59:07.796Z,62.80
2018-09-26T13:01:36.183Z,63.80
2018-09-26T13:04:04.656Z,59.00
2018-09-26T13:06:33.193Z,56.70
2018-09-26T13:09:01.746Z,52.30
2018-09-26T13:11:30.153Z,50.20
2018-09-26T13:13:58.576Z,49.40
2018-09-26T13:16:27.056Z,49.60
2018-09-26T13:18:55.480Z,49.80
2018-09-26T13:21:23.892Z,48.50
2018-09-26T13:23:52.414Z,49.20
2018-09-26T13:26:20.881Z,47.60
2018-09-26T13:28:49.261Z,48.70
2018-09-26T13:31:17.763Z,50.00
2018-09-26T13:33:46.162Z,51.70
2018-09-26T13:36:14.780Z,51.20
2018-09-26T13:38:43.308Z,52.50
2018-09-26T13:41:11.849Z,51.50
2018-09-26T13:43:40.218Z,50.90
2018-09-26T13:46:08.740Z,50.00
2018-09-26T13:48:37.039Z,51.60
2018-09-26T13:51:05.412Z,50.80
2018-09-26T13:53:33.798Z,51.60
2018-09-26T13:56:02.306Z,51.30
2018-09-26T13:58:30.653Z,50.60
2018-09-26T14:01:01.165Z,50.20
2018-09-26T14:03:29.678Z,48.90
2018-09-26T14:05:58.449Z,49.70
2018-09-26T14:08:26.929Z,46.70
2018-09-26T14:10:55.272Z,46.40
2018-09-26T14:13:23.842Z,46.20
2018-09-26T14:15:52.204Z,45.90
2018-09-26T14:18:20.772Z,46.40
2018-09-26T14:20:49.039Z,48.20
2018-09-26T14:23:17.943Z,49.90
2018-09-26T14:25:46.208Z,48.00
2018-09-26T14:28:14.692Z,48.20
2018-09-26T14:30:43.126Z,50.60
2018-09-26T14:33:11.424Z,47.90
2018-09-26T14:35:39.836Z,49.10
2018-09-26T14:38:08.210Z,53.20
2018-09-26T14:40:36.567Z,51.50
2018-09-26T14:43:04.998Z,51.60
2018-09-26T14:45:33.475Z,51.70
2018-09-26T14:48:01.900Z,54.40
2018-09-26T14:50:30.414Z,55.70
2018-09-26T14:52:58.879Z,52.50
2018-09-26T14:55:27.266Z,52.80
2018-09-26T14:57:55.718Z,53.40
2018-09-26T15:00:24.172Z,53.80
2018-09-26T15:02:52.625Z,54.50
2018-09-26T15:05:21.004Z,55.10
2018-09-26T15:07:49.365Z,52.60
2018-09-26T15:10:17.878Z,54.60
2018-09-26T15:12:46.243Z,55.10
2018-09-26T15:15:14.694Z,50.40
2018-09-26T15:17:43.310Z,50.10
2018-09-26T15:20:11.812Z,51.10
2018-09-26T15:22:40.136Z,51.30
2018-09-26T15:25:08.484Z,49.20
2018-09-26T15:27:37.092Z,49.90
2018-09-26T15:30:05.576Z,49.40
2018-09-26T15:32:33.960Z,48.60
2018-09-26T15:35:02.337Z,48.80
2018-09-26T15:37:30.681Z,47.70
2018-09-26T15:39:59.062Z,48.30
2018-09-26T15:42:27.520Z,47.60
2018-09-26T15:44:55.849Z,48.00
2018-09-26T15:47:24.332Z,47.90
2018-09-26T15:49:52.693Z,48.70
2018-09-26T15:52:21.085Z,48.50
2018-09-26T15:54:49.468Z,48.70
2018-09-26T15:57:18.001Z,49.20
2018-09-26T15:59:46.607Z,49.80
2018-09-26T16:02:15.105Z,49.00
2018-09-26T16:04:43.464Z,50.50
2018-09-26T16:07:11.871Z,49.70
2018-09-26T16:09:40.500Z,50.10
2018-09-26T16:12:08.932Z,50.90
2018-09-26T16:14:37.345Z,50.10
2018-09-26T16:17:05.716Z,49.50
2018-09-26T16:19:34.129Z,49.20
2018-09-26T16:22:02.495Z,49.60
2018-09-26T16:24:31.003Z,50.30
2018-09-26T16:26:59.337Z,50.50
2018-09-26T16:29:27.813Z,51.30
2018-09-26T16:31:56.206Z,52.40
2018-09-26T16:34:24.825Z,53.60
2018-09-26T16:36:53.190Z,55.30
2018-09-26T16:39:21.747Z,58.60
2018-09-26T16:41:50.127Z,59.80
2018-09-26T16:44:18.716Z,62.10
2018-09-26T16:46:47.132Z,64.40
2018-09-26T16:49:15.464Z,65.70
2018-09-26T16:51:43.857Z,66.80
2018-09-26T16:54:12.473Z,68.40
2018-09-26T16:56:41.064Z,68.80
2018-09-26T16:59:09.477Z,69.70
2018-09-26T17:01:37.899Z,70.60
2018-09-26T17:04:06.396Z,71.80
2018-09-26T17:06:34.780Z,72.10
2018-09-26T17:09:03.277Z,72.40
2018-09-26T17:11:31.760Z,73.10
2018-09-26T17:14:00.152Z,73.60
2018-09-26T17:16:28.516Z,74.10
2018-09-26T17:18:57.052Z,75.30
2018-09-26T17:21:25.619Z,76.20
2018-09-26T17:23:54.282Z,77.60
2018-09-26T17:26:22.842Z,77.80
2018-09-26T17:28:51.265Z,78.90
2018-09-26T17:31:19.636Z,79.50
2018-09-26T17:33:48.051Z,80.20
2018-09-26T17:36:16.482Z,81.20
2018-09-26T17:38:44.829Z,80.90
2018-09-26T17:41:13.258Z,83.20
2018-09-26T17:43:41.747Z,85.80
2018-09-26T17:46:10.180Z,87.50
2018-09-26T17:48:38.744Z,88.90
2018-09-26T17:51:07.206Z,89.80
2018-09-26T17:53:35.731Z,91.10
2018-09-26T17:56:04.084Z,92.30
2018-09-26T17:58:32.726Z,92.90
2018-09-26T18:01:01.104Z,93.80
2018-09-26T18:03:29.736Z,94.40
2018-09-26T18:05:58.233Z,95.10
2018-09-26T18:08:26.649Z,95.50
2018-09-26T18:10:55.348Z,95.80
2018-09-26T18:13:24.066Z,96.50
2018-09-26T18:15:52.739Z,96.80
2018-09-26T18:18:21.130Z,97.30
2018-09-26T18:20:49.508Z,97.70
2018-09-26T18:23:17.892Z,97.80
2018-09-26T18:25:46.322Z,98.50
2018-09-26T18:28:14.747Z,98.60
2018-09-26T18:30:43.155Z,99.10
2018-09-26T18:33:11.627Z,98.90
2018-09-26T18:35:40.018Z,99.30
2018-09-26T18:38:08.646Z,99.60
2018-09-26T18:40:37.568Z,99.90
2018-09-26T18:43:07.570Z,99.90
2018-09-26T18:45:36.350Z,99.90
2018-09-26T18:48:04.826Z,99.90
2018-09-26T18:50:33.201Z,99.90
2018-09-26T18:53:01.819Z,99.90
2018-09-26T18:55:30.448Z,99.90
2018-09-26T18:57:58.902Z,99.90
2018-09-26T19:00:27.397Z,99.90
2018-09-26T19:02:56.202Z,99.90
2018-09-26T19:05:24.698Z,99.90
2018-09-26T19:07:53.513Z,99.90
2018-09-26T19:10:22.084Z,99.90
2018-09-26T19:12:50.771Z,99.90
2018-09-26T19:15:19.266Z,99.90
2018-09-26T19:17:47.725Z,99.90
2018-09-26T19:20:16.345Z,99.90
2018-09-26T19:22:44.853Z,99.90
2018-09-26T19:25:13.922Z,99.90
2018-09-26T19:27:42.379Z,99.90
2018-09-26T19:30:10.910Z,99.90
2018-09-26T19:32:39.327Z,99.90
2018-09-26T19:35:07.774Z,99.90
2018-09-26T19:37:36.250Z,99.90
2018-09-26T19:40:04.735Z,99.90
2018-09-26T19:42:33.468Z,99.90
2018-09-26T19:45:01.949Z,99.90
2018-09-26T19:47:30.765Z,99.90
2018-09-26T19:49:59.438Z,99.90
2018-09-26T19:52:28.037Z,99.90
2018-09-26T19:54:56.473Z,99.90
2018-09-26T19:57:25.036Z,99.90
2018-09-26T19:59:53.598Z,99.90
2018-09-26T20:02:22.166Z,99.90
2018-09-26T20:04:50.664Z,99.90
2018-09-26T20:07:19.285Z,99.90
2018-09-26T20:09:47.783Z,99.90
2018-09-26T20:12:16.275Z,99.90
2018-09-26T20:14:44.945Z,99.90
2018-09-26T20:17:13.415Z,99.90
2018-09-26T20:19:42.005Z,99.90
2018-09-26T20:22:10.609Z,99.90
2018-09-26T20:24:38.977Z,99.90
2018-09-26T20:27:07.697Z,99.90
2018-09-26T20:29:36.261Z,99.90
2018-09-26T20:32:04.587Z,99.90
2018-09-26T20:34:33.018Z,99.90
2018-09-26T20:37:01.841Z,99.90
2018-09-26T20:39:30.456Z,99.90
2018-09-26T20:41:58.971Z,99.90
2018-09-26T20:47:05.785Z,99.90
2018-09-26T20:49:34.224Z,99.90
2018-09-26T20:52:03.074Z,99.90
2018-09-26T20:54:31.490Z,99.90
2018-09-26T20:57:00.011Z,99.90
2018-09-26T20:59:28.416Z,99.90
2018-09-26T21:01:56.981Z,99.90
2018-09-26T21:04:25.585Z,99.90
2018-09-26T21:06:54.032Z,99.90
2018-09-26T21:09:22.492Z,99.90
2018-09-26T21:11:51.160Z,99.90
2018-09-26T21:14:19.639Z,99.90
2018-09-26T21:16:48.169Z,99.90
2018-09-26T21:19:16.904Z,99.90
2018-09-26T21:21:45.275Z,99.90
2018-09-26T21:24:13.678Z,99.90
2018-09-26T21:26:42.051Z,99.90
2018-09-26T21:29:10.453Z,99.90
2018-09-26T21:31:38.808Z,99.90
2018-09-26T21:34:07.210Z,99.90
2018-09-26T21:36:35.596Z,99.90
2018-09-26T21:39:05.748Z,99.90
2018-09-26T21:41:34.074Z,99.90
2018-09-26T21:44:02.487Z,99.90
2018-09-26T21:46:30.883Z,99.90
2018-09-26T21:48:59.274Z,99.90
2018-09-26T21:51:27.680Z,99.90
2018-09-26T21:53:56.193Z,99.90
2018-09-26T21:56:24.616Z,99.90
2018-09-26T21:58:54.607Z,99.90
2018-09-26T22:01:23.066Z,99.90
2018-09-26T22:03:51.513Z,99.90
2018-09-26T22:06:20.395Z,99.90
2018-09-26T22:08:48.752Z,99.90
2018-09-26T22:11:17.395Z,99.90
2018-09-26T22:13:45.917Z,99.90
2018-09-26T22:16:14.281Z,99.90
2018-09-26T22:18:42.619Z,99.90
2018-09-26T22:21:11.143Z,99.90
2018-09-26T22:23:39.514Z,99.90
2018-09-26T22:26:08.003Z,99.90
2018-09-26T22:28:36.353Z,99.90
2018-09-26T22:31:05.214Z,99.90
2018-09-26T22:33:33.588Z,99.90
2018-09-26T22:36:02.121Z,99.90
2018-09-26T22:38:30.527Z,99.90
2018-09-26T22:40:59.140Z,99.90
2018-09-26T22:43:27.564Z,99.90
2018-09-26T22:45:55.970Z,99.90
2018-09-26T22:48:24.363Z,99.90
2018-09-26T22:50:52.843Z,99.90
2018-09-26T22:53:21.200Z,99.90
2018-09-26T22:55:49.586Z,99.90
2018-09-26T22:58:17.938Z,99.90
2018-09-26T23:00:46.407Z,99.90
2018-09-26T23:03:14.773Z,99.90
2018-09-26T23:05:43.118Z,99.90
2018-09-26T23:08:11.466Z,99.90
2018-09-26T23:10:39.874Z,99.90
2018-09-26T23:13:08.245Z,99.90
2018-09-26T23:15:36.570Z,99.90
2018-09-26T23:18:04.893Z,99.90
2018-09-26T23:20:33.243Z,99.90
2018-09-26T23:23:01.643Z,99.90
2018-09-26T23:25:29.971Z,99.90
2018-09-26T23:27:58.300Z,99.90
2018-09-26T23:30:26.673Z,99.90
2018-09-26T23:32:54.999Z,99.90
2018-09-26T23:35:23.321Z,99.90
2018-09-26T23:37:51.643Z,99.90
2018-09-26T23:40:20.317Z,99.90
2018-09-26T23:42:48.619Z,99.90
2018-09-26T23:45:16.990Z,99.90
2018-09-26T23:47:45.329Z,99.90
2018-09-26T23:50:13.686Z,99.90
2018-09-26T23:52:42.053Z,99.90
2018-09-26T23:55:10.420Z,99.90
2018-09-26T23:57:38.909Z,99.90
